sensor_id;sensor_type;location;lat;lon;timestamp;P1;durP1;ratioP1;P2;durP2;ratioP2
60038;SDS011;45916;52.734;6.544;2024-01-16T00:01:59;8.38;;;2.50;;
60038;SDS011;45916;52.734;6.544;2024-01-16T00:04:24;7.15;;;1.88;;
60038;SDS011;45916;52.734;6.544;2024-01-16T00:06:51;7.38;;;2.10;;
60038;SDS011;45916;52.734;6.544;2024-01-16T00:09:17;6.25;;;2.08;;
60038;SDS011;45916;52.734;6.544;2024-01-16T00:11:43;7.68;;;2.35;;
60038;SDS011;45916;52.734;6.544;2024-01-16T00:14:09;14.68;;;2.90;;
60038;SDS011;45916;52.734;6.544;2024-01-16T00:16:42;7.05;;;1.80;;
60038;SDS011;45916;52.734;6.544;2024-01-16T00:19:09;7.72;;;2.30;;
60038;SDS011;45916;52.734;6.544;2024-01-16T00:21:40;6.63;;;1.83;;
60038;SDS011;45916;52.734;6.544;2024-01-16T00:24:07;7.90;;;2.20;;
60038;SDS011;45916;52.734;6.544;2024-01-16T00:26:32;9.93;;;2.17;;
60038;SDS011;45916;52.734;6.544;2024-01-16T00:28:58;8.07;;;2.22;;
60038;SDS011;45916;52.734;6.544;2024-01-16T00:31:24;8.77;;;2.25;;
60038;SDS011;45916;52.734;6.544;2024-01-16T00:33:50;10.30;;;2.30;;
60038;SDS011;45916;52.734;6.544;2024-01-16T00:36:15;7.60;;;2.10;;
60038;SDS011;45916;52.734;6.544;2024-01-16T00:38:41;6.90;;;2.10;;
60038;SDS011;45916;52.734;6.544;2024-01-16T00:41:07;7.45;;;1.60;;
60038;SDS011;45916;52.734;6.544;2024-01-16T00:43:32;9.50;;;3.00;;
60038;SDS011;45916;52.734;6.544;2024-01-16T00:46:00;6.75;;;2.33;;
60038;SDS011;45916;52.734;6.544;2024-01-16T00:48:26;9.65;;;2.00;;
60038;SDS011;45916;52.734;6.544;2024-01-16T00:50:52;6.97;;;1.90;;
60038;SDS011;45916;52.734;6.544;2024-01-16T00:53:17;6.88;;;2.70;;
60038;SDS011;45916;52.734;6.544;2024-01-16T00:55:43;7.28;;;1.85;;
60038;SDS011;45916;52.734;6.544;2024-01-16T00:58:09;7.20;;;1.90;;
60038;SDS011;45916;52.734;6.544;2024-01-16T01:00:35;7.05;;;2.10;;
60038;SDS011;45916;52.734;6.544;2024-01-16T01:03:02;9.30;;;1.85;;
60038;SDS011;45916;52.734;6.544;2024-01-16T01:05:29;4.70;;;1.63;;
60038;SDS011;45916;52.734;6.544;2024-01-16T01:07:55;8.50;;;2.15;;
60038;SDS011;45916;52.734;6.544;2024-01-16T01:10:21;7.05;;;2.00;;
60038;SDS011;45916;52.734;6.544;2024-01-16T01:12:47;5.97;;;2.58;;
60038;SDS011;45916;52.734;6.544;2024-01-16T01:15:13;6.13;;;1.83;;
60038;SDS011;45916;52.734;6.544;2024-01-16T01:17:39;8.48;;;1.70;;
60038;SDS011;45916;52.734;6.544;2024-01-16T01:20:06;6.03;;;1.52;;
60038;SDS011;45916;52.734;6.544;2024-01-16T01:22:33;4.35;;;2.03;;
60038;SDS011;45916;52.734;6.544;2024-01-16T01:24:59;6.82;;;1.90;;
60038;SDS011;45916;52.734;6.544;2024-01-16T01:27:25;7.55;;;1.98;;
60038;SDS011;45916;52.734;6.544;2024-01-16T01:29:50;6.03;;;1.58;;
60038;SDS011;45916;52.734;6.544;2024-01-16T01:32:16;6.82;;;2.10;;
60038;SDS011;45916;52.734;6.544;2024-01-16T01:34:42;4.03;;;1.55;;
60038;SDS011;45916;52.734;6.544;2024-01-16T01:37:08;6.90;;;2.05;;
60038;SDS011;45916;52.734;6.544;2024-01-16T01:39:33;8.65;;;2.03;;
60038;SDS011;45916;52.734;6.544;2024-01-16T01:41:59;6.82;;;1.48;;
60038;SDS011;45916;52.734;6.544;2024-01-16T01:44:25;8.48;;;1.77;;
60038;SDS011;45916;52.734;6.544;2024-01-16T01:46:51;7.43;;;2.17;;
60038;SDS011;45916;52.734;6.544;2024-01-16T01:49:19;6.32;;;1.98;;
60038;SDS011;45916;52.734;6.544;2024-01-16T01:51:45;6.03;;;1.13;;
60038;SDS011;45916;52.734;6.544;2024-01-16T01:54:11;4.90;;;1.48;;
60038;SDS011;45916;52.734;6.544;2024-01-16T01:56:38;6.32;;;1.48;;
60038;SDS011;45916;52.734;6.544;2024-01-16T01:59:07;9.52;;;1.92;;
60038;SDS011;45916;52.734;6.544;2024-01-16T02:01:33;10.70;;;2.03;;
60038;SDS011;45916;52.734;6.544;2024-01-16T02:03:59;6.20;;;1.30;;
60038;SDS011;45916;52.734;6.544;2024-01-16T02:06:27;6.15;;;1.52;;
60038;SDS011;45916;52.734;6.544;2024-01-16T02:08:53;5.20;;;1.50;;
60038;SDS011;45916;52.734;6.544;2024-01-16T02:11:19;6.93;;;1.67;;
60038;SDS011;45916;52.734;6.544;2024-01-16T02:13:45;6.38;;;1.50;;
60038;SDS011;45916;52.734;6.544;2024-01-16T02:16:44;8.88;;;1.90;;
60038;SDS011;45916;52.734;6.544;2024-01-16T02:19:04;10.32;;;2.38;;
60038;SDS011;45916;52.734;6.544;2024-01-16T02:22:04;8.40;;;2.15;;
60038;SDS011;45916;52.734;6.544;2024-01-16T02:24:28;7.30;;;1.70;;
60038;SDS011;45916;52.734;6.544;2024-01-16T02:26:54;9.43;;;2.08;;
60038;SDS011;45916;52.734;6.544;2024-01-16T02:29:20;7.13;;;2.63;;
60038;SDS011;45916;52.734;6.544;2024-01-16T02:31:46;5.13;;;2.15;;
60038;SDS011;45916;52.734;6.544;2024-01-16T02:34:11;6.88;;;1.77;;
60038;SDS011;45916;52.734;6.544;2024-01-16T02:36:38;8.05;;;2.10;;
60038;SDS011;45916;52.734;6.544;2024-01-16T02:39:04;9.13;;;2.28;;
60038;SDS011;45916;52.734;6.544;2024-01-16T02:41:31;6.35;;;2.17;;
60038;SDS011;45916;52.734;6.544;2024-01-16T02:43:57;7.05;;;2.08;;
60038;SDS011;45916;52.734;6.544;2024-01-16T02:46:23;8.10;;;2.45;;
60038;SDS011;45916;52.734;6.544;2024-01-16T02:48:48;8.13;;;1.75;;
60038;SDS011;45916;52.734;6.544;2024-01-16T02:51:14;8.45;;;1.90;;
60038;SDS011;45916;52.734;6.544;2024-01-16T02:53:40;9.68;;;2.03;;
60038;SDS011;45916;52.734;6.544;2024-01-16T02:56:07;6.60;;;2.20;;
60038;SDS011;45916;52.734;6.544;2024-01-16T02:58:33;8.02;;;1.95;;
60038;SDS011;45916;52.734;6.544;2024-01-16T03:00:59;7.03;;;2.42;;
60038;SDS011;45916;52.734;6.544;2024-01-16T03:03:24;9.38;;;2.22;;
60038;SDS011;45916;52.734;6.544;2024-01-16T03:05:51;7.50;;;1.90;;
60038;SDS011;45916;52.734;6.544;2024-01-16T03:08:17;7.57;;;1.98;;
60038;SDS011;45916;52.734;6.544;2024-01-16T03:10:42;6.25;;;1.92;;
60038;SDS011;45916;52.734;6.544;2024-01-16T03:13:08;5.78;;;2.05;;
60038;SDS011;45916;52.734;6.544;2024-01-16T03:15:34;6.65;;;2.15;;
60038;SDS011;45916;52.734;6.544;2024-01-16T03:18:00;10.63;;;2.38;;
60038;SDS011;45916;52.734;6.544;2024-01-16T03:20:26;5.07;;;1.50;;
60038;SDS011;45916;52.734;6.544;2024-01-16T03:22:52;8.13;;;2.22;;
60038;SDS011;45916;52.734;6.544;2024-01-16T03:25:18;7.25;;;2.30;;
60038;SDS011;45916;52.734;6.544;2024-01-16T03:27:44;7.28;;;2.15;;
60038;SDS011;45916;52.734;6.544;2024-01-16T03:30:10;9.70;;;2.88;;
60038;SDS011;45916;52.734;6.544;2024-01-16T03:32:36;9.35;;;2.60;;
60038;SDS011;45916;52.734;6.544;2024-01-16T03:35:03;12.13;;;2.78;;
60038;SDS011;45916;52.734;6.544;2024-01-16T03:37:30;8.68;;;2.33;;
60038;SDS011;45916;52.734;6.544;2024-01-16T03:39:55;9.00;;;2.67;;
60038;SDS011;45916;52.734;6.544;2024-01-16T03:42:22;8.60;;;2.10;;
60038;SDS011;45916;52.734;6.544;2024-01-16T03:44:48;9.70;;;2.70;;
60038;SDS011;45916;52.734;6.544;2024-01-16T03:47:14;9.02;;;1.92;;
60038;SDS011;45916;52.734;6.544;2024-01-16T03:49:40;6.78;;;1.88;;
60038;SDS011;45916;52.734;6.544;2024-01-16T03:52:06;4.78;;;1.83;;
60038;SDS011;45916;52.734;6.544;2024-01-16T03:54:31;7.25;;;2.20;;
60038;SDS011;45916;52.734;6.544;2024-01-16T03:56:57;5.90;;;1.98;;
60038;SDS011;45916;52.734;6.544;2024-01-16T03:59:23;8.10;;;2.80;;
60038;SDS011;45916;52.734;6.544;2024-01-16T04:01:49;6.57;;;1.95;;
60038;SDS011;45916;52.734;6.544;2024-01-16T04:04:15;6.95;;;2.05;;
60038;SDS011;45916;52.734;6.544;2024-01-16T04:06:41;7.47;;;2.60;;
60038;SDS011;45916;52.734;6.544;2024-01-16T04:09:07;9.40;;;2.00;;
60038;SDS011;45916;52.734;6.544;2024-01-16T04:11:33;9.65;;;2.38;;
60038;SDS011;45916;52.734;6.544;2024-01-16T04:13:59;8.93;;;2.58;;
60038;SDS011;45916;52.734;6.544;2024-01-16T04:16:25;9.23;;;3.78;;
60038;SDS011;45916;52.734;6.544;2024-01-16T04:18:50;7.88;;;2.20;;
60038;SDS011;45916;52.734;6.544;2024-01-16T04:21:16;8.02;;;1.70;;
60038;SDS011;45916;52.734;6.544;2024-01-16T04:23:42;8.55;;;2.08;;
60038;SDS011;45916;52.734;6.544;2024-01-16T04:26:08;9.13;;;2.13;;
60038;SDS011;45916;52.734;6.544;2024-01-16T04:28:33;7.55;;;2.00;;
60038;SDS011;45916;52.734;6.544;2024-01-16T04:31:00;7.25;;;2.03;;
60038;SDS011;45916;52.734;6.544;2024-01-16T04:33:26;11.35;;;3.40;;
60038;SDS011;45916;52.734;6.544;2024-01-16T04:35:52;7.72;;;2.00;;
60038;SDS011;45916;52.734;6.544;2024-01-16T04:38:18;6.97;;;2.42;;
60038;SDS011;45916;52.734;6.544;2024-01-16T04:40:43;6.32;;;2.10;;
60038;SDS011;45916;52.734;6.544;2024-01-16T04:43:09;6.68;;;1.75;;
60038;SDS011;45916;52.734;6.544;2024-01-16T04:45:35;12.13;;;2.35;;
60038;SDS011;45916;52.734;6.544;2024-01-16T04:48:00;7.95;;;1.70;;
60038;SDS011;45916;52.734;6.544;2024-01-16T04:50:26;8.82;;;2.45;;
60038;SDS011;45916;52.734;6.544;2024-01-16T04:52:56;6.22;;;2.40;;
60038;SDS011;45916;52.734;6.544;2024-01-16T04:55:25;9.73;;;2.13;;
60038;SDS011;45916;52.734;6.544;2024-01-16T04:57:54;10.50;;;2.97;;
60038;SDS011;45916;52.734;6.544;2024-01-16T05:00:20;6.55;;;2.10;;
60038;SDS011;45916;52.734;6.544;2024-01-16T05:02:46;6.13;;;2.15;;
60038;SDS011;45916;52.734;6.544;2024-01-16T05:05:12;7.30;;;2.17;;
60038;SDS011;45916;52.734;6.544;2024-01-16T05:07:38;10.82;;;2.58;;
60038;SDS011;45916;52.734;6.544;2024-01-16T05:10:04;8.65;;;2.85;;
60038;SDS011;45916;52.734;6.544;2024-01-16T05:12:31;6.43;;;2.00;;
60038;SDS011;45916;52.734;6.544;2024-01-16T05:14:57;6.90;;;2.05;;
60038;SDS011;45916;52.734;6.544;2024-01-16T05:17:23;6.97;;;2.90;;
60038;SDS011;45916;52.734;6.544;2024-01-16T05:19:49;6.65;;;2.20;;
60038;SDS011;45916;52.734;6.544;2024-01-16T05:22:14;7.20;;;2.88;;
60038;SDS011;45916;52.734;6.544;2024-01-16T05:24:40;11.63;;;2.25;;
60038;SDS011;45916;52.734;6.544;2024-01-16T05:27:06;10.43;;;2.83;;
60038;SDS011;45916;52.734;6.544;2024-01-16T05:29:32;10.23;;;2.28;;
60038;SDS011;45916;52.734;6.544;2024-01-16T05:31:57;7.05;;;2.63;;
60038;SDS011;45916;52.734;6.544;2024-01-16T05:34:23;8.85;;;3.13;;
60038;SDS011;45916;52.734;6.544;2024-01-16T05:36:49;6.85;;;2.85;;
60038;SDS011;45916;52.734;6.544;2024-01-16T05:39:15;8.60;;;2.35;;
60038;SDS011;45916;52.734;6.544;2024-01-16T05:41:42;7.00;;;2.88;;
60038;SDS011;45916;52.734;6.544;2024-01-16T05:44:07;6.88;;;2.90;;
60038;SDS011;45916;52.734;6.544;2024-01-16T05:46:33;5.55;;;2.35;;
60038;SDS011;45916;52.734;6.544;2024-01-16T05:48:59;9.23;;;2.50;;
60038;SDS011;45916;52.734;6.544;2024-01-16T05:51:27;8.27;;;2.40;;
60038;SDS011;45916;52.734;6.544;2024-01-16T05:56:19;5.22;;;1.88;;
60038;SDS011;45916;52.734;6.544;2024-01-16T05:58:45;7.15;;;2.40;;
60038;SDS011;45916;52.734;6.544;2024-01-16T06:01:10;13.77;;;3.00;;
60038;SDS011;45916;52.734;6.544;2024-01-16T06:03:38;6.15;;;2.03;;
60038;SDS011;45916;52.734;6.544;2024-01-16T06:06:05;9.10;;;2.78;;
60038;SDS011;45916;52.734;6.544;2024-01-16T06:08:32;9.45;;;3.05;;
60038;SDS011;45916;52.734;6.544;2024-01-16T06:11:03;7.20;;;2.78;;
60038;SDS011;45916;52.734;6.544;2024-01-16T06:13:29;10.25;;;3.75;;
60038;SDS011;45916;52.734;6.544;2024-01-16T06:15:57;8.80;;;3.60;;
60038;SDS011;45916;52.734;6.544;2024-01-16T06:18:22;7.78;;;3.28;;
60038;SDS011;45916;52.734;6.544;2024-01-16T06:20:48;8.55;;;4.10;;
60038;SDS011;45916;52.734;6.544;2024-01-16T06:23:14;8.68;;;3.50;;
60038;SDS011;45916;52.734;6.544;2024-01-16T06:25:39;10.90;;;3.53;;
60038;SDS011;45916;52.734;6.544;2024-01-16T06:28:05;8.68;;;4.00;;
60038;SDS011;45916;52.734;6.544;2024-01-16T06:30:32;6.03;;;3.22;;
60038;SDS011;45916;52.734;6.544;2024-01-16T06:32:58;8.65;;;3.88;;
60038;SDS011;45916;52.734;6.544;2024-01-16T06:35:23;10.25;;;4.05;;
60038;SDS011;45916;52.734;6.544;2024-01-16T06:37:49;7.97;;;4.43;;
60038;SDS011;45916;52.734;6.544;2024-01-16T06:40:15;9.73;;;4.53;;
60038;SDS011;45916;52.734;6.544;2024-01-16T06:42:40;6.65;;;3.83;;
60038;SDS011;45916;52.734;6.544;2024-01-16T06:45:06;9.93;;;4.00;;
60038;SDS011;45916;52.734;6.544;2024-01-16T06:47:32;10.68;;;4.00;;
60038;SDS011;45916;52.734;6.544;2024-01-16T06:49:58;9.27;;;4.55;;
60038;SDS011;45916;52.734;6.544;2024-01-16T06:52:24;11.85;;;4.75;;
60038;SDS011;45916;52.734;6.544;2024-01-16T06:54:49;9.57;;;4.22;;
60038;SDS011;45916;52.734;6.544;2024-01-16T06:57:15;10.52;;;4.70;;
60038;SDS011;45916;52.734;6.544;2024-01-16T06:59:41;7.90;;;4.47;;
60038;SDS011;45916;52.734;6.544;2024-01-16T07:02:06;11.38;;;5.10;;
60038;SDS011;45916;52.734;6.544;2024-01-16T07:04:33;9.48;;;4.68;;
60038;SDS011;45916;52.734;6.544;2024-01-16T07:06:59;12.52;;;4.32;;
60038;SDS011;45916;52.734;6.544;2024-01-16T07:09:25;9.15;;;4.20;;
60038;SDS011;45916;52.734;6.544;2024-01-16T07:11:52;11.33;;;4.90;;
60038;SDS011;45916;52.734;6.544;2024-01-16T07:14:18;10.77;;;5.35;;
60038;SDS011;45916;52.734;6.544;2024-01-16T07:16:44;11.52;;;4.80;;
60038;SDS011;45916;52.734;6.544;2024-01-16T07:19:10;12.48;;;5.88;;
60038;SDS011;45916;52.734;6.544;2024-01-16T07:21:37;13.05;;;5.57;;
60038;SDS011;45916;52.734;6.544;2024-01-16T07:24:02;10.90;;;5.97;;
60038;SDS011;45916;52.734;6.544;2024-01-16T07:26:29;9.75;;;5.55;;
60038;SDS011;45916;52.734;6.544;2024-01-16T07:28:55;10.60;;;5.60;;
60038;SDS011;45916;52.734;6.544;2024-01-16T07:31:20;10.27;;;5.18;;
60038;SDS011;45916;52.734;6.544;2024-01-16T07:33:46;13.95;;;6.32;;
60038;SDS011;45916;52.734;6.544;2024-01-16T07:36:13;12.40;;;5.38;;
60038;SDS011;45916;52.734;6.544;2024-01-16T07:38:38;14.65;;;6.95;;
60038;SDS011;45916;52.734;6.544;2024-01-16T07:41:04;12.10;;;6.72;;
60038;SDS011;45916;52.734;6.544;2024-01-16T07:43:31;14.63;;;7.03;;
60038;SDS011;45916;52.734;6.544;2024-01-16T07:45:57;13.38;;;6.93;;
60038;SDS011;45916;52.734;6.544;2024-01-16T07:48:22;12.48;;;7.05;;
60038;SDS011;45916;52.734;6.544;2024-01-16T07:50:48;11.65;;;7.13;;
60038;SDS011;45916;52.734;6.544;2024-01-16T07:53:14;13.00;;;6.93;;
60038;SDS011;45916;52.734;6.544;2024-01-16T07:55:41;12.43;;;6.93;;
60038;SDS011;45916;52.734;6.544;2024-01-16T07:58:07;14.95;;;6.97;;
60038;SDS011;45916;52.734;6.544;2024-01-16T08:00:32;13.63;;;7.00;;
60038;SDS011;45916;52.734;6.544;2024-01-16T08:02:58;13.73;;;7.80;;
60038;SDS011;45916;52.734;6.544;2024-01-16T08:05:23;13.82;;;7.65;;
60038;SDS011;45916;52.734;6.544;2024-01-16T08:07:52;14.13;;;7.75;;
60038;SDS011;45916;52.734;6.544;2024-01-16T08:10:19;13.90;;;8.00;;
60038;SDS011;45916;52.734;6.544;2024-01-16T08:12:44;11.93;;;7.43;;
60038;SDS011;45916;52.734;6.544;2024-01-16T08:15:10;13.23;;;7.90;;
60038;SDS011;45916;52.734;6.544;2024-01-16T08:17:36;13.85;;;8.23;;
60038;SDS011;45916;52.734;6.544;2024-01-16T08:20:02;13.52;;;8.60;;
60038;SDS011;45916;52.734;6.544;2024-01-16T08:22:28;13.13;;;8.55;;
60038;SDS011;45916;52.734;6.544;2024-01-16T08:24:54;13.73;;;8.40;;
60038;SDS011;45916;52.734;6.544;2024-01-16T08:27:20;14.40;;;8.88;;
60038;SDS011;45916;52.734;6.544;2024-01-16T08:29:46;15.50;;;9.55;;
60038;SDS011;45916;52.734;6.544;2024-01-16T08:32:15;14.05;;;8.52;;
60038;SDS011;45916;52.734;6.544;2024-01-16T08:34:42;14.23;;;8.45;;
60038;SDS011;45916;52.734;6.544;2024-01-16T08:37:07;15.50;;;9.60;;
60038;SDS011;45916;52.734;6.544;2024-01-16T08:39:34;15.77;;;9.82;;
60038;SDS011;45916;52.734;6.544;2024-01-16T08:42:00;13.70;;;8.82;;
60038;SDS011;45916;52.734;6.544;2024-01-16T08:44:28;14.77;;;8.27;;
60038;SDS011;45916;52.734;6.544;2024-01-16T08:46:54;16.08;;;8.80;;
60038;SDS011;45916;52.734;6.544;2024-01-16T08:49:20;16.20;;;9.93;;
60038;SDS011;45916;52.734;6.544;2024-01-16T08:51:45;16.52;;;9.57;;
60038;SDS011;45916;52.734;6.544;2024-01-16T08:54:11;14.20;;;9.35;;
60038;SDS011;45916;52.734;6.544;2024-01-16T08:56:37;18.10;;;9.80;;
60038;SDS011;45916;52.734;6.544;2024-01-16T08:59:02;15.60;;;9.88;;
60038;SDS011;45916;52.734;6.544;2024-01-16T09:01:28;18.70;;;10.95;;
60038;SDS011;45916;52.734;6.544;2024-01-16T09:03:54;14.88;;;9.07;;
60038;SDS011;45916;52.734;6.544;2024-01-16T09:06:19;14.07;;;9.63;;
60038;SDS011;45916;52.734;6.544;2024-01-16T09:08:45;15.35;;;10.50;;
60038;SDS011;45916;52.734;6.544;2024-01-16T09:11:11;13.98;;;9.93;;
60038;SDS011;45916;52.734;6.544;2024-01-16T09:13:37;15.23;;;9.88;;
60038;SDS011;45916;52.734;6.544;2024-01-16T09:16:04;14.73;;;9.50;;
60038;SDS011;45916;52.734;6.544;2024-01-16T09:18:30;14.57;;;9.85;;
60038;SDS011;45916;52.734;6.544;2024-01-16T09:20:55;13.00;;;9.85;;
60038;SDS011;45916;52.734;6.544;2024-01-16T09:23:22;13.43;;;8.70;;
60038;SDS011;45916;52.734;6.544;2024-01-16T09:25:48;15.07;;;8.95;;
60038;SDS011;45916;52.734;6.544;2024-01-16T09:28:15;15.82;;;9.18;;
60038;SDS011;45916;52.734;6.544;2024-01-16T09:30:41;14.00;;;8.05;;
60038;SDS011;45916;52.734;6.544;2024-01-16T09:33:07;16.02;;;9.23;;
60038;SDS011;45916;52.734;6.544;2024-01-16T09:35:35;15.75;;;8.02;;
60038;SDS011;45916;52.734;6.544;2024-01-16T09:38:01;11.05;;;8.15;;
60038;SDS011;45916;52.734;6.544;2024-01-16T09:40:27;13.05;;;7.68;;
60038;SDS011;45916;52.734;6.544;2024-01-16T09:42:53;11.48;;;6.88;;
60038;SDS011;45916;52.734;6.544;2024-01-16T09:45:19;13.52;;;8.30;;
60038;SDS011;45916;52.734;6.544;2024-01-16T09:47:49;15.05;;;8.20;;
60038;SDS011;45916;52.734;6.544;2024-01-16T09:50:16;9.90;;;6.68;;
60038;SDS011;45916;52.734;6.544;2024-01-16T09:52:45;12.73;;;7.43;;
60038;SDS011;45916;52.734;6.544;2024-01-16T09:55:12;11.60;;;6.93;;
60038;SDS011;45916;52.734;6.544;2024-01-16T09:57:41;10.80;;;7.28;;
60038;SDS011;45916;52.734;6.544;2024-01-16T10:00:11;10.25;;;7.05;;
60038;SDS011;45916;52.734;6.544;2024-01-16T10:02:41;11.77;;;7.30;;
60038;SDS011;45916;52.734;6.544;2024-01-16T10:05:07;10.93;;;6.85;;
60038;SDS011;45916;52.734;6.544;2024-01-16T10:07:38;9.80;;;6.30;;
60038;SDS011;45916;52.734;6.544;2024-01-16T10:10:05;9.80;;;6.65;;
60038;SDS011;45916;52.734;6.544;2024-01-16T10:12:32;9.13;;;5.55;;
60038;SDS011;45916;52.734;6.544;2024-01-16T10:14:58;8.82;;;5.57;;
60038;SDS011;45916;52.734;6.544;2024-01-16T10:17:43;8.07;;;5.32;;
60038;SDS011;45916;52.734;6.544;2024-01-16T10:20:09;9.38;;;5.70;;
60038;SDS011;45916;52.734;6.544;2024-01-16T10:22:41;9.30;;;4.97;;
60038;SDS011;45916;52.734;6.544;2024-01-16T10:25:18;7.00;;;4.75;;
60038;SDS011;45916;52.734;6.544;2024-01-16T10:27:45;9.95;;;5.25;;
60038;SDS011;45916;52.734;6.544;2024-01-16T10:30:11;9.95;;;5.47;;
60038;SDS011;45916;52.734;6.544;2024-01-16T10:32:37;8.63;;;4.80;;
60038;SDS011;45916;52.734;6.544;2024-01-16T10:35:05;7.88;;;4.72;;
60038;SDS011;45916;52.734;6.544;2024-01-16T10:37:54;9.20;;;4.30;;
60038;SDS011;45916;52.734;6.544;2024-01-16T10:40:20;8.23;;;3.83;;
60038;SDS011;45916;52.734;6.544;2024-01-16T10:43:03;7.85;;;3.78;;
60038;SDS011;45916;52.734;6.544;2024-01-16T10:45:29;8.65;;;4.55;;
60038;SDS011;45916;52.734;6.544;2024-01-16T10:48:03;7.68;;;2.92;;
60038;SDS011;45916;52.734;6.544;2024-01-16T10:50:32;5.40;;;2.95;;
60038;SDS011;45916;52.734;6.544;2024-01-16T10:53:00;11.38;;;3.97;;
60038;SDS011;45916;52.734;6.544;2024-01-16T10:55:29;6.07;;;3.70;;
60038;SDS011;45916;52.734;6.544;2024-01-16T10:57:58;7.97;;;3.70;;
60038;SDS011;45916;52.734;6.544;2024-01-16T11:00:26;7.50;;;3.20;;
60038;SDS011;45916;52.734;6.544;2024-01-16T11:05:29;9.02;;;3.13;;
60038;SDS011;45916;52.734;6.544;2024-01-16T11:07:58;6.88;;;2.80;;
60038;SDS011;45916;52.734;6.544;2024-01-16T11:10:26;11.02;;;3.47;;
60038;SDS011;45916;52.734;6.544;2024-01-16T11:12:52;8.57;;;3.78;;
60038;SDS011;45916;52.734;6.544;2024-01-16T11:15:20;7.85;;;4.50;;
60038;SDS011;45916;52.734;6.544;2024-01-16T11:17:46;7.80;;;4.50;;
60038;SDS011;45916;52.734;6.544;2024-01-16T11:20:15;9.00;;;4.53;;
60038;SDS011;45916;52.734;6.544;2024-01-16T11:22:44;11.50;;;5.47;;
60038;SDS011;45916;52.734;6.544;2024-01-16T11:25:12;10.40;;;5.60;;
60038;SDS011;45916;52.734;6.544;2024-01-16T11:27:39;9.90;;;6.73;;
60038;SDS011;45916;52.734;6.544;2024-01-16T11:30:06;9.85;;;6.22;;
60038;SDS011;45916;52.734;6.544;2024-01-16T11:32:34;12.43;;;6.93;;
60038;SDS011;45916;52.734;6.544;2024-01-16T11:35:05;8.48;;;6.28;;
60038;SDS011;45916;52.734;6.544;2024-01-16T11:37:32;13.63;;;7.28;;
60038;SDS011;45916;52.734;6.544;2024-01-16T11:42:46;12.75;;;7.32;;
60038;SDS011;45916;52.734;6.544;2024-01-16T11:48:09;14.10;;;8.75;;
60038;SDS011;45916;52.734;6.544;2024-01-16T11:50:36;13.82;;;7.65;;
60038;SDS011;45916;52.734;6.544;2024-01-16T11:53:02;12.13;;;9.02;;
60038;SDS011;45916;52.734;6.544;2024-01-16T12:00:52;17.63;;;11.15;;
60038;SDS011;45916;52.734;6.544;2024-01-16T12:03:18;17.05;;;9.32;;
60038;SDS011;45916;52.734;6.544;2024-01-16T12:08:21;13.95;;;9.38;;
60038;SDS011;45916;52.734;6.544;2024-01-16T12:10:47;14.98;;;9.18;;
60038;SDS011;45916;52.734;6.544;2024-01-16T12:13:13;13.98;;;9.65;;
60038;SDS011;45916;52.734;6.544;2024-01-16T12:15:39;15.95;;;11.10;;
60038;SDS011;45916;52.734;6.544;2024-01-16T12:18:06;14.98;;;9.80;;
60038;SDS011;45916;52.734;6.544;2024-01-16T12:20:33;14.70;;;10.02;;
60038;SDS011;45916;52.734;6.544;2024-01-16T12:25:27;16.15;;;10.88;;
60038;SDS011;45916;52.734;6.544;2024-01-16T12:27:58;15.73;;;10.48;;
60038;SDS011;45916;52.734;6.544;2024-01-16T12:30:31;16.05;;;9.75;;
60038;SDS011;45916;52.734;6.544;2024-01-16T12:33:08;16.05;;;9.50;;
60038;SDS011;45916;52.734;6.544;2024-01-16T12:35:38;16.92;;;9.70;;
60038;SDS011;45916;52.734;6.544;2024-01-16T12:38:10;14.90;;;10.70;;
60038;SDS011;45916;52.734;6.544;2024-01-16T12:40:41;12.57;;;8.27;;
60038;SDS011;45916;52.734;6.544;2024-01-16T12:43:19;13.82;;;8.35;;
60038;SDS011;45916;52.734;6.544;2024-01-16T12:45:45;13.90;;;7.72;;
60038;SDS011;45916;52.734;6.544;2024-01-16T12:48:11;12.95;;;8.85;;
60038;SDS011;45916;52.734;6.544;2024-01-16T12:50:37;14.27;;;8.90;;
60038;SDS011;45916;52.734;6.544;2024-01-16T12:53:10;13.32;;;9.20;;
60038;SDS011;45916;52.734;6.544;2024-01-16T12:55:40;16.45;;;8.98;;
60038;SDS011;45916;52.734;6.544;2024-01-16T12:58:21;19.23;;;10.38;;
60038;SDS011;45916;52.734;6.544;2024-01-16T13:00:53;13.82;;;8.85;;
60038;SDS011;45916;52.734;6.544;2024-01-16T13:05:54;13.25;;;9.80;;
60038;SDS011;45916;52.734;6.544;2024-01-16T13:08:20;13.68;;;9.35;;
60038;SDS011;45916;52.734;6.544;2024-01-16T13:11:01;15.27;;;10.13;;
60038;SDS011;45916;52.734;6.544;2024-01-16T13:13:34;13.15;;;9.05;;
60038;SDS011;45916;52.734;6.544;2024-01-16T13:16:01;14.52;;;8.73;;
60038;SDS011;45916;52.734;6.544;2024-01-16T13:18:28;12.68;;;9.60;;
60038;SDS011;45916;52.734;6.544;2024-01-16T13:20:55;13.38;;;10.15;;
60038;SDS011;45916;52.734;6.544;2024-01-16T13:23:22;16.25;;;8.90;;
60038;SDS011;45916;52.734;6.544;2024-01-16T13:25:50;13.23;;;8.77;;
60038;SDS011;45916;52.734;6.544;2024-01-16T13:28:17;11.40;;;8.25;;
60038;SDS011;45916;52.734;6.544;2024-01-16T13:30:44;10.50;;;7.65;;
60038;SDS011;45916;52.734;6.544;2024-01-16T13:33:11;10.70;;;7.03;;
60038;SDS011;45916;52.734;6.544;2024-01-16T13:35:38;9.02;;;6.70;;
60038;SDS011;45916;52.734;6.544;2024-01-16T13:38:05;11.45;;;6.60;;
60038;SDS011;45916;52.734;6.544;2024-01-16T13:40:33;11.03;;;6.17;;
60038;SDS011;45916;52.734;6.544;2024-01-16T13:43:05;11.07;;;5.75;;
60038;SDS011;45916;52.734;6.544;2024-01-16T13:45:31;8.52;;;5.28;;
60038;SDS011;45916;52.734;6.544;2024-01-16T13:47:58;8.65;;;4.60;;
60038;SDS011;45916;52.734;6.544;2024-01-16T13:50:26;9.52;;;4.22;;
60038;SDS011;45916;52.734;6.544;2024-01-16T13:52:51;9.05;;;4.45;;
60038;SDS011;45916;52.734;6.544;2024-01-16T13:55:18;7.25;;;3.80;;
60038;SDS011;45916;52.734;6.544;2024-01-16T13:57:44;7.95;;;3.47;;
60038;SDS011;45916;52.734;6.544;2024-01-16T14:00:11;9.27;;;3.70;;
60038;SDS011;45916;52.734;6.544;2024-01-16T14:02:41;8.05;;;3.20;;
60038;SDS011;45916;52.734;6.544;2024-01-16T14:05:08;7.60;;;3.03;;
60038;SDS011;45916;52.734;6.544;2024-01-16T14:07:40;36.88;;;5.28;;
60038;SDS011;45916;52.734;6.544;2024-01-16T14:10:12;7.93;;;3.03;;
60038;SDS011;45916;52.734;6.544;2024-01-16T14:12:40;7.65;;;3.10;;
60038;SDS011;45916;52.734;6.544;2024-01-16T14:15:10;8.32;;;3.33;;
60038;SDS011;45916;52.734;6.544;2024-01-16T14:17:46;9.07;;;3.50;;
60038;SDS011;45916;52.734;6.544;2024-01-16T14:20:14;8.57;;;4.53;;
60038;SDS011;45916;52.734;6.544;2024-01-16T14:22:40;6.40;;;2.90;;
60038;SDS011;45916;52.734;6.544;2024-01-16T14:25:07;9.23;;;3.58;;
60038;SDS011;45916;52.734;6.544;2024-01-16T14:27:37;9.23;;;3.42;;
60038;SDS011;45916;52.734;6.544;2024-01-16T14:30:10;8.48;;;3.78;;
60038;SDS011;45916;52.734;6.544;2024-01-16T14:32:41;8.70;;;3.53;;
60038;SDS011;45916;52.734;6.544;2024-01-16T14:35:09;7.50;;;3.20;;
60038;SDS011;45916;52.734;6.544;2024-01-16T14:37:39;6.40;;;3.40;;
60038;SDS011;45916;52.734;6.544;2024-01-16T14:40:06;8.82;;;3.28;;
60038;SDS011;45916;52.734;6.544;2024-01-16T14:42:38;5.90;;;3.15;;
60038;SDS011;45916;52.734;6.544;2024-01-16T14:45:08;8.18;;;4.07;;
60038;SDS011;45916;52.734;6.544;2024-01-16T14:47:36;7.72;;;3.28;;
60038;SDS011;45916;52.734;6.544;2024-01-16T14:50:02;6.90;;;3.17;;
60038;SDS011;45916;52.734;6.544;2024-01-16T14:52:29;7.07;;;3.60;;
60038;SDS011;45916;52.734;6.544;2024-01-16T14:54:57;8.40;;;3.60;;
60038;SDS011;45916;52.734;6.544;2024-01-16T14:57:24;6.30;;;3.53;;
60038;SDS011;45916;52.734;6.544;2024-01-16T14:59:50;8.38;;;3.13;;
60038;SDS011;45916;52.734;6.544;2024-01-16T15:02:16;8.27;;;3.50;;
60038;SDS011;45916;52.734;6.544;2024-01-16T15:04:42;5.65;;;2.95;;
60038;SDS011;45916;52.734;6.544;2024-01-16T15:07:08;8.95;;;3.80;;